Time;durP1;ratioP1;P1;durP2;ratioP2;P2;SDS_P1;SDS_P2;PMS_P1;PMS_P2;Temp;Humidity;BMP_temperature;BMP_pressure;BME280_temperature;BME280_humidity;BME280_pressure;Samples;Min_cycle;Max_cycle;Signal;HPM_P1;HPM_P2
2020/12/01 00:01:32;;;;;;;54.18;31.77;;;;;;;0.58;100.00;100624.00;633381;224;32695;-70
2020/12/01 00:04:00;;;;;;;60.77;31.63;;;;;;;0.56;100.00;100628.36;626967;229;25134;-71
2020/12/01 00:06:31;;;;;;;50.17;25.87;;;;;;;0.56;100.00;100609.17;632328;227;24961;-70
2020/12/01 00:08:59;;;;;;;55.00;32.93;;;;;;;0.72;100.00;100613.11;638409;223;32938;-71
2020/12/01 00:11:27;;;;;;;59.73;33.55;;;;;;;1.09;100.00;100600.63;623900;226;33104;-73
2020/12/01 00:13:55;;;;;;;50.70;29.47;;;;;;;1.03;100.00;100600.94;646127;221;23781;-72
2020/12/01 00:16:23;;;;;;;45.77;24.83;;;;;;;0.91;100.00;100596.41;641346;224;24916;-73
2020/12/01 00:18:51;;;;;;;41.10;22.67;;;;;;;0.81;100.00;100602.87;641022;222;24908;-73
2020/12/01 00:21:19;;;;;;;54.05;31.15;;;;;;;1.15;100.00;100600.34;642265;222;32760;-72
2020/12/01 00:23:47;;;;;;;41.63;26.57;;;;;;;0.88;100.00;100596.56;635741;226;23829;-70
2020/12/01 00:26:16;;;;;;;52.55;31.60;;;;;;;1.00;100.00;100581.06;630378;226;32891;-70
2020/12/01 00:28:44;;;;;;;50.33;27.70;;;;;;;0.89;100.00;100589.27;635810;226;23807;-70
2020/12/01 00:31:12;;;;;;;51.25;31.55;;;;;;;0.98;100.00;100579.00;641370;222;33146;-71
2020/12/01 00:33:39;;;;;;;51.75;30.62;;;;;;;1.10;100.00;100571.55;630218;226;32959;-72
2020/12/01 00:36:07;;;;;;;50.98;31.50;;;;;;;1.16;100.00;100568.70;634889;221;32721;-72
2020/12/01 00:38:35;;;;;;;49.15;30.50;;;;;;;1.36;100.00;100554.05;632241;225;44049;-73
2020/12/01 00:41:03;;;;;;;49.47;27.47;;;;;;;1.19;100.00;100557.47;627080;226;23773;-70
2020/12/01 00:43:31;;;;;;;47.10;29.30;;;;;;;1.54;100.00;100550.98;630792;225;33328;-70
2020/12/01 00:45:59;;;;;;;43.67;25.20;;;;;;;1.29;100.00;100540.73;635529;226;23794;-72
2020/12/01 00:48:27;;;;;;;48.40;23.77;;;;;;;1.07;100.00;100525.61;646865;222;24917;-69
2020/12/01 00:50:55;;;;;;;40.80;23.00;;;;;;;0.98;100.00;100529.91;649861;221;24936;-71
2020/12/01 00:53:23;;;;;;;43.63;23.07;;;;;;;1.12;100.00;100531.77;647398;222;25994;-70
2020/12/01 00:55:50;;;;;;;50.85;29.20;;;;;;;1.17;100.00;100510.16;636082;222;32786;-72
2020/12/01 00:58:18;;;;;;;43.97;25.20;;;;;;;1.12;100.00;100500.58;642984;223;23811;-71
2020/12/01 01:00:48;;;;;;;46.57;23.00;;;;;;;1.04;100.00;100489.09;626838;225;24940;-70
2020/12/01 01:03:14;;;;;;;50.48;29.42;;;;;;;1.41;100.00;100488.87;623650;228;33011;-72
2020/12/01 01:05:42;;;;;;;46.80;25.30;;;;;;;1.12;100.00;100491.63;629111;227;23823;-76
2020/12/01 01:08:10;;;;;;;43.13;24.33;;;;;;;1.08;100.00;100492.69;641033;224;24918;-75
2020/12/01 01:10:38;;;;;;;48.03;24.93;;;;;;;0.92;100.00;100509.73;637311;224;24956;-70
2020/12/01 01:13:06;;;;;;;49.25;29.67;;;;;;;0.94;100.00;100507.92;634951;220;32778;-72
2020/12/01 01:15:34;;;;;;;48.80;29.92;;;;;;;1.03;100.00;100503.63;632897;221;32755;-70
2020/12/01 01:18:02;;;;;;;49.20;25.30;;;;;;;0.97;100.00;100490.30;636745;222;23780;-69
2020/12/01 01:20:30;;;;;;;43.23;24.73;;;;;;;0.98;100.00;100479.97;638308;225;24928;-70
2020/12/01 01:22:57;;;;;;;48.13;28.57;;;;;;;1.14;100.00;100482.16;633601;221;32920;-76
2020/12/01 01:25:25;;;;;;;46.65;29.40;;;;;;;1.03;100.00;100489.55;634161;220;32862;-69
2020/12/01 01:27:53;;;;;;;47.97;24.37;;;;;;;1.01;100.00;100476.00;644191;223;23780;-69
2020/12/01 01:30:21;;;;;;;47.67;29.67;;;;;;;1.34;100.00;100486.69;636218;224;32977;-70
2020/12/01 01:32:49;;;;;;;44.37;24.97;;;;;;;1.04;100.00;100478.85;635394;225;23823;-70
2020/12/01 01:35:17;;;;;;;52.45;30.85;;;;;;;0.99;100.00;100476.53;642736;221;32762;-69
2020/12/01 01:37:45;;;;;;;48.97;26.07;;;;;;;0.98;100.00;100465.89;635421;225;23819;-70
2020/12/01 01:40:17;;;;;;;44.97;24.17;;;;;;;0.97;100.00;100469.36;649055;221;25207;-70
2020/12/01 01:42:45;;;;;;;50.20;29.92;;;;;;;1.11;100.00;100456.67;623974;226;43636;-75
2020/12/01 01:45:13;;;;;;;48.37;26.10;;;;;;;1.09;100.00;100453.38;629590;226;23816;-73
2020/12/01 01:47:41;;;;;;;43.13;24.70;;;;;;;0.99;100.00;100454.77;642975;223;24911;-74
2020/12/01 01:50:10;;;;;;;49.50;29.75;;;;;;;1.08;100.00;100453.00;622029;229;32925;-70
2020/12/01 01:52:38;;;;;;;47.60;27.50;;;;;;;0.99;100.00;100447.09;625932;229;24965;-69
2020/12/01 01:55:06;;;;;;;52.45;29.85;;;;;;;1.08;100.00;100436.35;639062;221;33090;-71
2020/12/01 01:57:34;;;;;;;49.48;30.45;;;;;;;1.27;100.00;100434.11;641717;221;32722;-70
2020/12/01 02:00:02;;;;;;;47.83;24.70;;;;;;;1.03;100.00;100435.77;647009;222;23825;-76
2020/12/01 02:02:30;;;;;;;50.83;30.00;;;;;;;1.19;100.00;100434.52;629840;226;33340;-70
2020/12/01 02:04:58;;;;;;;55.03;32.00;;;;;;;1.34;100.00;100431.16;641373;222;33249;-72
2020/12/01 02:07:26;;;;;;;51.55;30.97;;;;;;;1.32;100.00;100432.97;629840;226;32804;-71
2020/12/01 02:09:53;;;;;;;51.30;31.25;;;;;;;1.18;100.00;100429.03;629721;226;32713;-71
2020/12/01 02:12:21;;;;;;;50.83;28.70;;;;;;;0.99;100.00;100425.78;647126;221;23800;-72
2020/12/01 02:14:50;;;;;;;49.90;26.40;;;;;;;0.95;100.00;100416.13;646985;222;24926;-70
2020/12/01 02:17:19;;;;;;;55.67;31.17;;;;;;;1.15;100.00;100408.25;630541;226;32906;-72
2020/12/01 02:19:47;;;;;;;52.90;31.87;;;;;;;1.26;100.00;100400.44;637800;222;32644;-70
2020/12/01 02:22:15;;;;;;;44.93;25.27;;;;;;;1.25;100.00;100393.20;627198;228;23851;-70
2020/12/01 02:24:43;;;;;;;54.77;31.57;;;;;;;1.36;100.00;100386.23;634202;221;43462;-70
2020/12/01 02:27:11;;;;;;;52.83;31.60;;;;;;;1.57;100.00;100379.96;629929;225;43754;-71
2020/12/01 02:29:39;;;;;;;43.90;24.87;;;;;;;1.59;100.00;100374.75;642097;221;23781;-69
2020/12/01 02:32:07;;;;;;;51.65;31.27;;;;;;;1.32;100.00;100366.36;622546;225;32905;-70
2020/12/01 02:34:36;;;;;;;49.90;25.93;;;;;;;1.18;100.00;100372.22;626273;229;23856;-70
2020/12/01 02:37:03;;;;;;;40.93;22.40;;;;;;;1.10;100.00;100369.23;626217;226;24951;-72
2020/12/01 02:39:31;;;;;;;49.85;29.12;;;;;;;1.26;100.00;100362.01;631335;224;32727;-71
2020/12/01 02:41:59;;;;;;;46.27;24.93;;;;;;;1.06;100.00;100364.36;643901;221;23777;-70
2020/12/01 02:44:27;;;;;;;56.15;31.42;;;;;;;1.15;100.00;100358.77;620688;225;32870;-70
2020/12/01 02:46:55;;;;;;;47.10;27.40;;;;;;;1.10;100.00;100356.42;628100;223;23837;-71
2020/12/01 02:49:23;;;;;;;57.13;33.30;;;;;;;0.97;100.00;100354.14;620698;229;42814;-71
2020/12/01 02:51:51;;;;;;;53.67;30.10;;;;;;;0.89;100.00;100348.61;637930;225;23811;-75
2020/12/01 02:54:19;;;;;;;58.35;32.17;;;;;;;1.13;100.00;100341.38;633621;225;32861;-72
2020/12/01 02:56:46;;;;;;;53.93;28.30;;;;;;;1.06;100.00;100341.31;636966;225;23818;-72
2020/12/01 02:59:14;;;;;;;56.90;33.55;;;;;;;0.99;100.00;100333.14;620225;229;33190;-74
2020/12/01 03:01:42;;;;;;;55.43;29.87;;;;;;;0.99;100.00;100330.59;633781;225;23792;-69
2020/12/01 03:04:10;;;;;;;47.87;24.37;;;;;;;1.12;100.00;100323.05;650288;221;24913;-70
2020/12/01 03:06:38;;;;;;;54.27;32.30;;;;;;;1.09;100.00;100313.80;644123;221;43846;-70
2020/12/01 03:09:06;;;;;;;52.47;28.13;;;;;;;1.02;100.00;100313.77;647670;221;23873;-70
2020/12/01 03:11:34;;;;;;;56.77;31.40;;;;;;;1.06;100.00;100311.87;637335;222;32759;-73
2020/12/01 03:14:02;;;;;;;54.53;27.90;;;;;;;0.95;100.00;100312.89;646811;222;23801;-70
2020/12/01 03:16:29;;;;;;;55.98;32.33;;;;;;;1.02;100.00;100309.94;644170;221;32707;-70
2020/12/01 03:18:57;;;;;;;54.17;28.63;;;;;;;0.88;100.00;100309.38;647599;222;29066;-70
2020/12/01 03:21:25;;;;;;;62.05;32.50;;;;;;;1.04;100.00;100305.55;641979;222;32784;-72
2020/12/01 03:23:53;;;;;;;53.17;28.23;;;;;;;0.84;100.00;100301.47;635811;225;23822;-72
2020/12/01 03:26:21;;;;;;;54.10;25.80;;;;;;;0.78;100.00;100306.93;636740;225;28196;-73
2020/12/01 03:28:49;;;;;;;51.90;23.90;;;;;;;0.78;100.00;100302.27;636774;225;24933;-70
2020/12/01 03:31:17;;;;;;;52.83;25.97;;;;;;;0.81;100.00;100300.81;637944;225;24963;-70
2020/12/01 03:33:44;;;;;;;44.07;22.87;;;;;;;0.75;100.00;100293.48;626693;227;24989;-70
2020/12/01 03:36:12;;;;;;;62.60;32.78;;;;;;;0.83;100.00;100290.86;620778;229;33240;-70
2020/12/01 03:38:40;;;;;;;55.37;28.63;;;;;;;0.77;100.00;100289.09;626317;225;23816;-73
2020/12/01 03:41:08;;;;;;;52.03;27.07;;;;;;;0.68;100.00;100284.00;644405;221;24960;-70
2020/12/01 03:43:36;;;;;;;45.93;24.17;;;;;;;0.66;100.00;100278.59;628305;225;24981;-73
2020/12/01 03:46:04;;;;;;;51.33;27.80;;;;;;;0.63;100.00;100284.70;645861;220;24924;-73
2020/12/01 03:48:32;;;;;;;62.62;34.40;;;;;;;0.70;100.00;100282.64;631407;224;32663;-74
2020/12/01 03:51:00;;;;;;;49.20;28.17;;;;;;;0.64;100.00;100277.85;639448;221;24058;-72
2020/12/01 03:53:28;;;;;;;63.05;34.70;;;;;;;0.70;100.00;100268.56;637106;223;32764;-74
2020/12/01 03:55:56;;;;;;;54.00;28.10;;;;;;;0.70;100.00;100268.11;642624;223;23802;-69
2020/12/01 03:58:23;;;;;;;58.25;33.55;;;;;;;0.72;100.00;100260.38;637088;223;32735;-70
2020/12/01 04:00:51;;;;;;;51.37;27.93;;;;;;;0.68;100.00;100248.62;642582;223;23777;-70
2020/12/01 04:03:19;;;;;;;52.77;26.47;;;;;;;0.74;100.00;100260.66;642891;223;24919;-71
2020/12/01 04:05:47;;;;;;;53.33;26.40;;;;;;;0.70;100.00;100260.87;633751;225;24970;-76
2020/12/01 04:08:15;;;;;;;62.80;33.78;;;;;;;0.78;100.00;100260.03;642101;222;32918;-69
2020/12/01 04:10:43;;;;;;;52.47;27.20;;;;;;;0.80;100.00;100249.25;635563;226;23837;-72
2020/12/01 04:13:11;;;;;;;60.98;33.67;;;;;;;0.85;100.00;100256.25;623950;226;32835;-70
2020/12/01 04:15:39;;;;;;;49.77;26.53;;;;;;;0.93;100.00;100254.55;644053;223;23826;-70
2020/12/01 04:18:07;;;;;;;54.63;30.25;;;;;;;1.04;100.00;100256.08;623601;228;32861;-75
2020/12/01 04:20:34;;;;;;;50.47;24.70;;;;;;;1.10;100.00;100250.15;632433;225;23788;-72
2020/12/01 04:23:02;;;;;;;44.27;23.50;;;;;;;1.10;100.00;100255.72;647628;222;24956;-73
2020/12/01 04:25:30;;;;;;;40.17;20.77;;;;;;;1.23;100.00;100259.27;630763;226;25044;-72
2020/12/01 04:27:58;;;;;;;37.03;19.70;;;;;;;1.13;100.00;100249.18;643159;221;28113;-73
2020/12/01 04:30:26;;;;;;;39.63;20.63;;;;;;;1.24;100.00;100256.25;649888;221;26422;-70
2020/12/01 04:32:54;;;;;;;40.80;20.57;;;;;;;1.29;100.00;100256.84;650032;221;24906;-70
2020/12/01 04:35:22;;;;;;;35.50;20.90;;;;;;;1.14;100.00;100250.83;641540;221;24899;-72
2020/12/01 04:37:50;;;;;;;44.07;20.77;;;;;;;1.16;100.00;100256.23;625165;230;24997;-73
2020/12/01 04:40:18;;;;;;;48.08;27.73;;;;;;;1.32;100.00;100252.82;631664;225;32918;-70
2020/12/01 04:42:46;;;;;;;44.23;24.17;;;;;;;1.17;100.00;100244.25;626921;226;23796;-70
2020/12/01 04:45:14;;;;;;;45.00;23.43;;;;;;;1.23;100.00;100237.49;630709;224;24939;-70
2020/12/01 04:47:46;;;;;;;37.10;19.47;;;;;;;1.26;100.00;100243.72;644807;222;25018;-71
2020/12/01 04:50:14;;;;;;;48.45;27.75;;;;;;;1.29;100.00;100243.58;629399;224;32731;-72
2020/12/01 04:52:53;;;;;;;40.17;22.73;;;;;;;1.13;100.00;100244.88;637383;225;25973;-73
2020/12/01 04:55:37;;;;;;;39.90;20.60;;;;;;;1.23;100.00;100246.46;637243;226;28058;-73
2020/12/01 04:58:14;;;;;;;40.20;19.90;;;;;;;1.21;100.00;100246.17;641372;221;24865;-73
2020/12/01 05:00:43;;;;;;;39.87;20.30;;;;;;;1.45;100.00;100243.53;639963;221;25023;-71
2020/12/01 05:03:22;;;;;;;45.50;26.05;;;;;;;1.20;100.00;100236.39;633768;223;32738;-70
2020/12/01 05:06:02;;;;;;;43.93;22.73;;;;;;;1.30;100.00;100235.44;642406;221;25283;-72
2020/12/01 05:08:32;;;;;;;41.47;21.27;;;;;;;1.28;100.00;100231.68;639109;222;24889;-70
2020/12/01 05:13:37;;;;;;;34.77;19.70;;;;;;;1.19;100.00;100229.63;652813;217;25425;-71
2020/12/01 05:16:13;;;;;;;40.13;20.03;;;;;;;1.18;100.00;100223.67;639713;224;24915;-72
2020/12/01 05:18:41;;;;;;;35.53;19.03;;;;;;;1.14;100.00;100222.20;635741;224;24979;-70
2020/12/01 05:21:08;;;;;;;47.53;27.22;;;;;;;1.34;100.00;100218.52;643589;220;33037;-71
2020/12/01 05:23:38;;;;;;;45.87;24.07;;;;;;;1.35;100.00;100221.90;640759;223;23724;-74
2020/12/01 05:26:10;;;;;;;39.97;22.37;;;;;;;1.05;100.00;100218.86;621410;227;24963;-71
2020/12/01 05:28:44;;;;;;;41.03;21.23;;;;;;;1.06;100.00;100226.09;625306;225;25003;-72
2020/12/01 05:31:12;;;;;;;38.93;20.37;;;;;;;1.17;100.00;100219.92;638046;225;25038;-72
2020/12/01 05:33:40;;;;;;;45.90;21.97;;;;;;;0.97;100.00;100222.28;636429;225;28162;-73
2020/12/01 05:36:15;;;;;;;40.70;20.80;;;;;;;0.88;100.00;100220.24;637716;225;24969;-73
2020/12/01 05:38:43;;;;;;;55.33;30.82;;;;;;;0.98;100.00;100216.70;630844;226;32881;-71
2020/12/01 05:41:18;;;;;;;46.73;27.33;;;;;;;0.95;100.00;100210.02;636047;225;23805;-73
2020/12/01 05:43:46;;;;;;;51.20;24.60;;;;;;;0.99;100.00;100211.98;636512;224;25116;-73
2020/12/01 05:46:15;;;;;;;50.60;28.47;;;;;;;1.12;100.00;100216.77;625719;225;32925;-72
2020/12/01 05:48:52;;;;;;;46.60;23.67;;;;;;;1.07;100.00;100215.75;625888;229;23829;-72
2020/12/01 05:51:23;;;;;;;46.23;22.30;;;;;;;1.19;100.00;100222.76;647666;220;25237;-72
2020/12/01 05:53:56;;;;;;;36.83;20.00;;;;;;;1.25;100.00;100220.75;638964;225;24879;-71
2020/12/01 05:56:24;;;;;;;36.93;20.30;;;;;;;1.19;100.00;100215.08;639442;225;25015;-72
2020/12/01 05:58:56;;;;;;;45.78;26.70;;;;;;;1.41;100.00;100212.60;633688;225;32983;-72
2020/12/01 06:01:24;;;;;;;45.00;26.70;;;;;;;1.58;100.00;100213.73;633744;225;32916;-73
2020/12/01 06:04:02;;;;;;;41.97;22.70;;;;;;;1.64;100.00;100210.81;637177;225;23745;-71
2020/12/01 06:06:31;;;;;;;35.77;19.80;;;;;;;1.59;100.00;100214.11;625689;226;25004;-72
2020/12/01 06:08:59;;;;;;;36.90;19.80;;;;;;;1.49;100.00;100208.67;645145;221;28156;-71
2020/12/01 06:11:30;;;;;;;32.03;17.80;;;;;;;1.61;100.00;100215.30;631699;226;24963;-73
2020/12/01 06:13:59;;;;;;;34.40;18.77;;;;;;;1.55;100.00;100210.08;646182;221;24898;-71
2020/12/01 06:16:35;;;;;;;46.03;19.53;;;;;;;1.46;100.00;100211.42;631895;227;24950;-71
2020/12/01 06:19:14;;;;;;;35.17;18.60;;;;;;;1.49;100.00;100218.09;632463;225;24943;-70
2020/12/01 06:21:47;;;;;;;35.27;19.00;;;;;;;1.52;100.00;100229.45;639650;223;25056;-71
2020/12/01 06:24:40;;;;;;;33.37;19.17;;;;;;;1.58;100.00;100220.15;637617;223;24964;-71
2020/12/01 06:27:19;;;;;;;33.07;18.47;;;;;;;1.47;100.00;100228.90;637667;220;24924;-72
2020/12/01 06:30:03;;;;;;;46.95;25.40;;;;;;;1.75;100.00;100228.97;631449;225;33217;-71
2020/12/01 06:33:07;;;;;;;33.00;19.17;;;;;;;1.73;100.00;100223.56;648607;221;23990;-70
2020/12/01 06:35:50;;;;;;;32.83;18.10;;;;;;;1.63;100.00;100224.55;636110;225;24960;-71
2020/12/01 06:38:26;;;;;;;30.67;16.40;;;;;;;1.64;100.00;100221.06;635606;226;24985;-71
2020/12/01 06:40:54;;;;;;;34.67;18.93;;;;;;;1.70;100.00;100231.44;641210;223;24919;-71
2020/12/01 06:43:23;;;;;;;36.00;18.97;;;;;;;1.77;100.00;100219.91;645197;221;25846;-71
2020/12/01 06:45:52;;;;;;;36.77;18.93;;;;;;;1.60;100.00;100218.32;633258;225;25002;-71
2020/12/01 06:48:18;;;;;;;44.45;25.02;;;;;;;1.96;100.00;100215.80;630957;225;33330;-71
2020/12/01 06:50:48;;;;;;;42.10;25.27;;;;;;;1.61;100.00;100216.13;627598;226;43637;-72
2020/12/01 06:53:24;;;;;;;36.07;21.40;;;;;;;1.56;100.00;100219.42;648209;222;23672;-71
2020/12/01 06:55:53;;;;;;;37.97;22.63;;;;;;;1.62;100.00;100218.23;629165;226;25031;-72
2020/12/01 06:58:29;;;;;;;50.10;27.10;;;;;;;1.50;100.00;100226.16;632536;222;32684;-72
2020/12/01 07:01:06;;;;;;;43.30;22.60;;;;;;;1.64;100.00;100227.93;637446;221;23738;-70
2020/12/01 07:03:34;;;;;;;42.60;22.10;;;;;;;1.57;100.00;100222.34;642504;224;24873;-71
2020/12/01 07:06:11;;;;;;;57.20;27.20;;;;;;;1.36;100.00;100223.55;625971;229;24926;-71
2020/12/01 07:08:39;;;;;;;86.03;38.03;;;;;;;1.29;100.00;100233.78;625960;229;24874;-71
2020/12/01 07:11:07;;;;;;;88.58;45.50;;;;;;;1.34;100.00;100228.77;620630;228;32799;-70
2020/12/01 07:13:39;;;;;;;53.92;30.25;;;;;;;1.40;100.00;100226.30;633186;223;32811;-71
2020/12/01 07:16:08;;;;;;;45.93;25.50;;;;;;;1.33;100.00;100225.83;639640;224;23710;-71
2020/12/01 07:18:36;;;;;;;52.88;28.92;;;;;;;1.29;100.00;100222.26;641816;221;32741;-70
2020/12/01 07:21:09;;;;;;;47.53;25.70;;;;;;;1.30;100.00;100217.50;630184;226;23755;-71
2020/12/01 07:23:37;;;;;;;46.77;22.70;;;;;;;1.39;100.00;100224.65;638817;225;24903;-71
2020/12/01 07:26:12;;;;;;;54.33;29.07;;;;;;;1.48;100.00;100222.40;636214;223;32778;-70
2020/12/01 07:28:40;;;;;;;44.77;23.60;;;;;;;1.42;100.00;100215.08;625876;230;24058;-71
2020/12/01 07:31:19;;;;;;;54.73;29.20;;;;;;;1.78;100.00;100217.25;620472;230;33747;-70
2020/12/01 07:33:50;;;;;;;56.40;31.73;;;;;;;1.86;100.00;100224.50;620288;230;33059;-71
2020/12/01 07:36:26;;;;;;;50.97;24.67;;;;;;;1.76;100.00;100224.20;643226;222;23760;-70
2020/12/01 07:39:05;;;;;;;41.67;21.90;;;;;;;1.79;100.00;100223.20;639575;225;24991;-72
2020/12/01 07:41:33;;;;;;;51.45;28.10;;;;;;;1.79;100.00;100226.59;644691;220;32709;-71
2020/12/01 07:44:03;;;;;;;42.30;23.40;;;;;;;1.72;100.00;100229.16;633739;224;23802;-72
2020/12/01 07:46:29;;;;;;;53.78;28.62;;;;;;;1.64;100.00;100228.75;631448;225;32896;-71
2020/12/01 07:48:59;;;;;;;45.83;23.60;;;;;;;1.73;100.00;100231.26;638592;223;23820;-71
2020/12/01 07:51:28;;;;;;;39.23;20.93;;;;;;;1.73;100.00;100226.95;644705;220;24944;-71
2020/12/01 07:53:55;;;;;;;40.77;19.53;;;;;;;1.69;100.00;100231.90;631687;225;24851;-71
2020/12/01 07:56:23;;;;;;;39.40;19.70;;;;;;;1.83;100.00;100232.81;631921;225;24980;-72
2020/12/01 07:59:04;;;;;;;36.63;19.90;;;;;;;1.90;100.00;100235.41;630739;227;24954;-72
2020/12/01 08:01:32;;;;;;;35.10;19.10;;;;;;;1.75;100.00;100225.12;633857;225;24898;-71
2020/12/01 08:04:06;;;;;;;37.80;19.70;;;;;;;1.88;100.00;100232.93;645628;222;24877;-71
2020/12/01 08:06:34;;;;;;;39.33;21.93;;;;;;;1.62;100.00;100236.17;628863;228;26146;-71
2020/12/01 08:09:03;;;;;;;43.13;20.07;;;;;;;1.73;100.00;100237.67;644839;223;24908;-72
2020/12/01 08:11:31;;;;;;;33.93;17.53;;;;;;;1.86;100.00;100245.48;643821;221;24896;-72
2020/12/01 08:13:57;;;;;;;39.07;18.80;;;;;;;2.00;100.00;100241.19;647406;221;24916;-71
2020/12/01 08:16:27;;;;;;;36.63;18.67;;;;;;;2.07;100.00;100246.77;645348;223;24915;-71
2020/12/01 08:18:53;;;;;;;34.40;18.13;;;;;;;2.18;100.00;100243.13;631988;227;28219;-71
2020/12/01 08:21:21;;;;;;;30.40;17.43;;;;;;;2.14;100.00;100242.95;648330;221;24822;-72
2020/12/01 08:23:49;;;;;;;35.47;18.60;;;;;;;2.11;100.00;100245.66;648809;221;24899;-71
2020/12/01 08:26:18;;;;;;;34.47;17.93;;;;;;;1.97;100.00;100239.23;648924;221;24920;-70
2020/12/01 08:28:46;;;;;;;32.90;17.57;;;;;;;2.09;100.00;100233.39;648889;221;24839;-72
2020/12/01 08:31:15;;;;;;;35.00;18.80;;;;;;;1.81;100.00;100235.92;648815;221;24912;-71
2020/12/01 08:33:49;;;;;;;34.77;18.43;;;;;;;2.00;100.00;100232.67;648320;221;24981;-71
2020/12/01 08:36:21;;;;;;;39.10;23.20;;;;;;;2.02;100.00;100242.38;643225;221;32758;-71
2020/12/01 08:38:57;;;;;;;36.30;19.53;;;;;;;1.95;100.00;100241.89;649268;217;23724;-71
2020/12/01 08:41:29;;;;;;;38.75;23.25;;;;;;;2.19;100.00;100239.64;642278;221;32960;-72
2020/12/01 08:43:57;;;;;;;36.30;19.73;;;;;;;2.00;100.00;100241.65;640401;221;23713;-71
2020/12/01 08:46:25;;;;;;;35.30;17.93;;;;;;;1.72;100.00;100245.81;634433;223;24889;-71
2020/12/01 08:49:06;;;;;;;30.17;16.53;;;;;;;1.70;100.00;100253.23;647854;221;24896;-71
2020/12/01 08:51:24;;;;;;;36.95;21.33;;;;;;;2.12;100.00;100248.62;625973;227;33021;-71
2020/12/01 08:53:54;;;;;;;37.03;19.67;;;;;;;2.30;100.00;100247.52;639120;225;26955;-71
2020/12/01 08:56:26;;;;;;;40.95;23.73;;;;;;;2.20;100.00;100248.16;638265;221;32872;-71
2020/12/01 08:58:54;;;;;;;36.00;20.10;;;;;;;2.22;100.00;100250.17;630660;228;23823;-71
2020/12/01 09:01:22;;;;;;;36.43;18.90;;;;;;;2.05;100.00;100248.14;633413;225;24952;-71
2020/12/01 09:03:53;;;;;;;31.43;17.47;;;;;;;2.14;100.00;100254.95;626497;229;24918;-70
2020/12/01 09:06:21;;;;;;;30.73;17.47;;;;;;;1.74;100.00;100252.13;639369;225;28165;-70
2020/12/01 09:08:55;;;;;;;33.77;17.90;;;;;;;1.72;100.00;100254.78;637051;225;24985;-70
2020/12/01 09:14:25;;;;;;;30.73;16.93;;;;;;;2.28;100.00;100254.50;634670;225;24908;-70
2020/12/01 09:16:57;;;;;;;30.33;17.10;;;;;;;2.40;100.00;100254.69;638073;225;27014;-71
2020/12/01 09:22:06;;;;;;;37.70;22.20;;;;;;;2.73;100.00;100251.34;639400;223;32734;-70
2020/12/01 09:24:34;;;;;;;35.47;20.37;;;;;;;2.27;100.00;100248.17;644440;222;23704;-75
2020/12/01 09:27:03;;;;;;;35.53;18.50;;;;;;;2.59;100.00;100255.21;647804;221;24914;-70
2020/12/01 09:29:31;;;;;;;31.50;17.40;;;;;;;2.70;100.00;100258.41;635909;226;25018;-71
2020/12/01 09:31:59;;;;;;;37.75;22.67;;;;;;;2.82;100.00;100253.36;639219;222;32761;-71
2020/12/01 09:34:31;;;;;;;30.63;18.43;;;;;;;2.49;100.00;100264.37;629956;228;23813;-70
2020/12/01 09:37:01;;;;;;;32.70;19.07;;;;;;;2.49;100.00;100261.34;645110;221;29435;-70
2020/12/01 09:39:27;;;;;;;37.38;22.45;;;;;;;2.56;100.00;100257.52;639310;221;32869;-71
2020/12/01 09:42:08;;;;;;;34.90;19.47;;;;;;;2.41;100.00;100261.47;646878;221;23710;-72
2020/12/01 09:44:51;;;;;;;31.80;17.93;;;;;;;2.38;100.00;100268.86;631746;225;24963;-71
2020/12/01 09:47:18;;;;;;;30.90;17.83;;;;;;;2.52;100.00;100269.32;634025;225;25286;-71
2020/12/01 09:49:41;;;;;;;32.10;20.27;;;;;;;2.49;100.00;100269.51;625961;225;32908;-71
2020/12/01 09:52:13;;;;;;;34.47;18.90;;;;;;;2.26;100.00;100269.16;644032;222;23736;-71
2020/12/01 09:54:41;;;;;;;37.47;18.93;;;;;;;2.36;100.00;100261.26;644316;222;24902;-70
2020/12/01 09:57:08;;;;;;;27.77;16.40;;;;;;;2.11;100.00;100262.34;643553;223;24919;-70
2020/12/01 09:59:41;;;;;;;33.10;18.50;;;;;;;2.21;100.00;100260.06;633287;225;24872;-71
2020/12/01 10:05:12;;;;;;;29.50;16.60;;;;;;;2.08;100.00;100258.22;623892;229;24929;-72
2020/12/01 10:07:51;;;;;;;32.40;17.83;;;;;;;2.14;100.00;100257.05;625774;229;24969;-71
2020/12/01 10:10:26;;;;;;;30.43;17.17;;;;;;;2.31;100.00;100255.59;627272;225;24904;-71
2020/12/01 10:12:58;;;;;;;32.23;18.47;;;;;;;2.20;100.00;100257.96;638600;224;24889;-71
2020/12/01 10:15:42;;;;;;;34.77;19.43;;;;;;;2.30;100.00;100255.22;626258;229;25020;-71
2020/12/01 10:21:31;;;;;;;33.20;19.27;;;;;;;2.29;100.00;100266.41;633267;223;25066;-72
2020/12/01 10:34:32;;;;;;;32.90;19.73;;;;;;;3.25;100.00;100251.48;630016;226;23732;-71
2020/12/01 10:36:57;;;;;;;34.30;19.33;;;;;;;2.69;100.00;100262.73;635285;226;25490;-71
2020/12/01 10:39:25;;;;;;;30.10;17.67;;;;;;;2.91;100.00;100266.89;636710;225;25017;-71
2020/12/01 10:41:53;;;;;;;30.67;17.50;;;;;;;3.27;100.00;100258.63;640730;224;24841;-71
2020/12/01 10:44:21;;;;;;;34.30;18.10;;;;;;;2.69;100.00;100264.01;646444;221;24817;-71
2020/12/01 10:46:49;;;;;;;33.20;21.70;;;;;;;2.73;100.00;100266.75;645065;221;24924;-72
2020/12/01 10:49:17;;;;;;;32.60;18.43;;;;;;;2.89;100.00;100262.31;645931;223;28063;-72
2020/12/01 10:51:48;;;;;;;27.43;15.03;;;;;;;2.94;100.00;100264.58;645214;222;24842;-71
2020/12/01 10:54:16;;;;;;;28.77;17.70;;;;;;;2.84;100.00;100260.50;646469;221;24841;-71
2020/12/01 10:56:46;;;;;;;35.38;21.70;;;;;;;3.04;100.00;100264.38;632731;224;32915;-71
2020/12/01 10:59:14;;;;;;;36.30;19.00;;;;;;;3.13;100.00;100265.56;631686;226;23796;-71
2020/12/01 11:01:42;;;;;;;34.00;17.73;;;;;;;3.01;100.00;100259.45;639621;220;24898;-71
2020/12/01 11:04:10;;;;;;;32.90;18.93;;;;;;;2.69;100.00;100269.14;633967;225;24941;-73
2020/12/01 11:06:38;;;;;;;35.17;22.60;;;;;;;2.89;100.00;100270.02;633449;221;32993;-71
2020/12/01 11:09:06;;;;;;;34.07;19.83;;;;;;;2.81;100.00;100270.94;624923;228;24892;-72
2020/12/01 11:11:33;;;;;;;34.23;17.90;;;;;;;2.39;100.00;100280.77;646694;220;24824;-72
2020/12/01 11:14:01;;;;;;;31.43;17.60;;;;;;;2.51;100.00;100276.66;647171;220;25907;-71
2020/12/01 11:16:29;;;;;;;29.10;16.40;;;;;;;2.75;100.00;100271.78;648544;221;24933;-72
2020/12/01 11:18:57;;;;;;;29.73;17.80;;;;;;;2.26;100.00;100269.62;648778;220;33339;-71
2020/12/01 11:21:25;;;;;;;32.77;17.80;;;;;;;2.29;100.00;100272.00;633174;225;24879;-71
2020/12/01 11:23:54;;;;;;;31.17;18.33;;;;;;;2.31;100.00;100267.59;633768;226;24963;-71
2020/12/01 11:26:21;;;;;;;31.90;18.27;;;;;;;2.50;100.00;100273.73;639777;224;24847;-71
2020/12/01 11:28:49;;;;;;;31.00;17.80;;;;;;;2.54;100.00;100271.36;638267;225;24938;-72
2020/12/01 11:31:17;;;;;;;33.77;17.00;;;;;;;2.72;100.00;100266.38;627223;225;24879;-71
2020/12/01 11:33:45;;;;;;;30.70;16.37;;;;;;;2.80;100.00;100266.72;629154;225;24983;-70
2020/12/01 11:36:13;;;;;;;31.30;18.03;;;;;;;2.82;100.00;100270.50;649513;220;24918;-71
2020/12/01 11:38:41;;;;;;;34.23;17.10;;;;;;;2.76;100.00;100269.12;647424;220;24866;-72
2020/12/01 11:41:09;;;;;;;35.10;21.70;;;;;;;2.78;100.00;100272.41;634588;221;33248;-72
2020/12/01 11:43:37;;;;;;;30.43;19.07;;;;;;;2.48;100.00;100274.28;640915;221;23747;-72
2020/12/01 11:46:05;;;;;;;31.63;16.73;;;;;;;2.41;100.00;100275.13;649991;221;24833;-73